Time,TemperatureF,DewpointF,PressureIn,WindDirection,WindDirectionDegrees,WindSpeedMPH,WindSpeedGustMPH,Humidity,HourlyPrecipIn,Conditions,Clouds,dailyrainin,SoftwareType,DateUTC
2013-08-22 00:03:00,78.0,69.0,29.96,West,259,6.0,7.0,73,0.00,,,0.00,,2013-08-22 05:03:00,
2013-08-22 00:22:00,77.0,68.0,29.96,WSW,238,0.0,0.0,75,0.00,,,0.00,,2013-08-22 05:22:00,
2013-08-22 00:34:00,77.0,68.0,29.96,WSW,238,0.0,0.0,75,0.00,,,0.00,,2013-08-22 05:34:00,
2013-08-22 00:43:00,77.0,68.0,29.96,WSW,238,0.0,0.0,75,0.00,,,0.00,,2013-08-22 05:43:00,
2013-08-22 00:52:00,77.0,69.0,29.96,WSW,238,0.0,1.0,77,0.00,,,0.00,,2013-08-22 05:52:00,
2013-08-22 01:22:00,75.0,65.0,29.98,East,84,4.0,6.0,71,0.00,,,0.00,,2013-08-22 06:22:00,
2013-08-22 01:42:00,73.0,63.0,29.99,East,93,3.0,8.0,72,0.00,,,0.00,,2013-08-22 06:42:00,
2013-08-22 01:52:00,72.0,64.0,29.99,East,83,4.0,6.0,76,0.00,,,0.00,,2013-08-22 06:52:00,
2013-08-22 02:22:00,71.0,64.0,29.99,SSE,161,3.0,9.0,78,0.00,,,0.00,,2013-08-22 07:22:00,
2013-08-22 02:42:00,71.0,65.0,29.99,SE,144,5.0,5.0,80,0.00,,,0.00,,2013-08-22 07:42:00,
2013-08-22 02:53:00,71.0,65.0,29.99,SE,144,5.0,5.0,80,0.00,,,0.00,,2013-08-22 07:53:00,
2013-08-22 03:22:00,70.0,65.0,29.98,South,184,0.0,3.0,84,0.00,,,0.00,,2013-08-22 08:22:00,
2013-08-22 03:53:00,70.0,65.0,29.98,SSE,163,0.0,1.0,84,0.00,,,0.00,,2013-08-22 08:53:00,
2013-08-22 04:22:00,70.0,65.0,29.98,SW,215,0.0,1.0,84,0.00,,,0.00,,2013-08-22 09:22:00,
2013-08-22 04:53:00,70.0,65.0,29.98,South,180,0.0,0.0,84,0.00,,,0.00,,2013-08-22 09:53:00,
2013-08-22 05:03:00,70.0,65.0,29.98,South,180,0.0,0.0,84,0.00,,,0.00,,2013-08-22 10:03:00,
2013-08-22 05:23:00,70.0,65.0,29.98,WSW,252,0.0,0.0,84,0.00,,,0.00,,2013-08-22 10:23:00,
2013-08-22 05:29:00,70.0,65.0,29.97,SE,140,0.0,0.0,85,0.00,,,0.00,,2013-08-22 10:29:00,
2013-08-22 05:42:00,70.0,65.0,29.97,SE,140,0.0,0.0,85,0.00,,,0.00,,2013-08-22 10:42:00,
2013-08-22 07:52:00,71.0,67.0,29.98,WSW,258,0.0,2.0,88,0.00,,,0.00,,2013-08-22 12:52:00,
2013-08-22 08:12:00,71.0,67.0,29.98,WSW,258,0.0,0.0,88,0.00,,,0.00,,2013-08-22 13:12:00,
2013-08-22 08:22:00,71.0,67.0,29.98,WSW,258,3.0,3.0,88,0.00,,,0.00,,2013-08-22 13:22:00,
2013-08-22 08:32:00,71.0,67.0,29.98,WSW,258,3.0,3.0,88,0.00,,,0.00,,2013-08-22 13:32:00,
2013-08-22 08:52:00,72.0,68.0,29.98,WSW,246,3.0,3.0,87,0.00,,,0.00,,2013-08-22 13:52:00,
2013-08-22 09:22:00,72.0,68.0,29.98,WSW,246,0.0,5.0,88,0.00,,,0.00,,2013-08-22 14:22:00,
2013-08-22 09:42:00,72.0,68.0,30.01,WSW,246,0.0,0.0,88,0.00,,,0.00,,2013-08-22 14:42:00,
2013-08-22 09:52:00,72.0,68.0,30.01,WSW,246,0.0,0.0,88,0.00,,,0.00,,2013-08-22 14:52:00,
2013-08-22 10:22:00,71.0,68.0,30.01,WSW,251,0.0,2.0,90,0.00,,,0.00,,2013-08-22 15:22:00,
2013-08-22 10:54:00,70.0,68.0,30.04,WSW,254,0.0,0.0,92,0.05,,,0.04,,2013-08-22 15:54:00,
2013-08-22 11:14:00,68.0,67.0,30.09,West,265,7.0,18.0,95,0.43,,,0.43,,2013-08-22 16:14:00,
2013-08-22 11:24:00,68.0,67.0,30.09,West,265,7.0,18.0,95,0.43,,,0.43,,2013-08-22 16:24:00,
2013-08-22 11:54:00,67.0,66.0,30.10,West,264,3.0,7.0,96,0.72,,,0.92,,2013-08-22 16:54:00,
2013-08-22 12:24:00,66.0,65.0,30.09,West,261,0.0,1.0,96,0.24,,,1.02,,2013-08-22 17:24:00,
2013-08-22 12:33:00,66.0,65.0,30.09,West,261,0.0,1.0,96,0.24,,,1.02,,2013-08-22 17:33:00,
2013-08-22 12:53:00,66.0,65.0,30.09,West,261,0.0,1.0,96,0.24,,,1.02,,2013-08-22 17:53:00,
2013-08-22 13:12:00,67.0,66.0,30.07,West,261,3.0,3.0,97,0.08,,,1.06,,2013-08-22 18:12:00,
2013-08-22 13:22:00,67.0,66.0,30.07,West,261,1.0,3.0,97,0.04,,,1.06,,2013-08-22 18:22:00,
2013-08-22 13:52:00,69.0,68.0,30.06,West,261,0.0,1.0,97,0.01,,,1.06,,2013-08-22 18:52:00,
2013-08-22 14:11:00,69.0,68.0,30.05,West,261,0.0,0.0,98,0.00,,,1.06,,2013-08-22 19:11:00,
2013-08-22 14:22:00,69.0,68.0,30.05,West,261,0.0,0.0,98,0.00,,,1.06,,2013-08-22 19:22:00,
2013-08-22 14:53:00,70.0,69.0,30.03,NNE,19,0.0,0.0,97,0.00,,,1.06,,2013-08-22 19:53:00,
2013-08-22 15:12:00,71.0,70.0,30.03,NNE,19,0.0,1.0,97,0.00,,,1.06,,2013-08-22 20:12:00,
2013-08-22 15:23:00,72.0,71.0,30.03,NNE,19,0.0,1.0,96,0.00,,,1.06,,2013-08-22 20:23:00,
2013-08-22 15:52:00,72.0,70.0,30.01,East,90,3.0,4.0,95,0.00,,,1.06,,2013-08-22 20:52:00,
2013-08-22 16:13:00,73.0,71.0,30.00,ENE,68,3.0,4.0,92,0.00,,,1.06,,2013-08-22 21:13:00,
2013-08-22 16:22:00,73.0,71.0,30.00,ENE,68,3.0,4.0,92,0.00,,,1.06,,2013-08-22 21:22:00,
2013-08-22 16:44:00,75.0,72.0,29.98,ENE,71,0.0,3.0,89,0.00,,,1.06,,2013-08-22 21:44:00,
2013-08-22 16:54:00,76.0,70.0,29.98,SE,139,3.0,4.0,83,0.00,,,1.06,,2013-08-22 21:54:00,
2013-08-22 17:24:00,77.0,70.0,30.01,WSW,248,0.0,3.0,80,0.00,,,1.06,,2013-08-22 22:24:00,
2013-08-22 17:53:00,76.0,69.0,30.02,WSW,248,0.0,0.0,78,0.00,,,1.06,,2013-08-22 22:53:00,
2013-08-22 18:11:00,78.0,70.0,30.03,WSW,248,0.0,0.0,76,0.00,,,1.06,,2013-08-22 23:11:00,
2013-08-22 18:22:00,78.0,69.0,30.03,WSW,248,0.0,0.0,75,0.00,,,1.06,,2013-08-22 23:22:00,
2013-08-22 18:33:00,78.0,69.0,30.03,WSW,248,0.0,0.0,75,0.00,,,1.06,,2013-08-22 23:33:00,
2013-08-22 18:52:00,76.0,70.0,30.03,WSW,248,0.0,0.0,82,0.00,,,1.06,,2013-08-22 23:52:00,
2013-08-22 19:12:00,76.0,71.0,30.03,WSW,248,0.0,1.0,84,0.00,,,1.06,,2013-08-23 00:12:00,
2013-08-22 19:23:00,75.0,70.0,30.03,WSW,248,0.0,0.0,85,0.00,,,1.06,,2013-08-23 00:23:00,
2013-08-22 19:42:00,75.0,71.0,30.05,WSW,248,0.0,1.0,86,0.00,,,1.06,,2013-08-23 00:42:00,
2013-08-22 19:52:00,74.0,70.0,30.05,WSW,248,0.0,1.0,87,0.00,,,1.06,,2013-08-23 00:52:00,
2013-08-22 20:11:00,74.0,70.0,30.05,WSW,248,3.0,3.0,87,0.00,,,1.06,,2013-08-23 01:11:00,
2013-08-22 20:21:00,73.0,69.0,30.05,ENE,61,0.0,6.0,87,0.00,,,1.06,,2013-08-23 01:21:00,
2013-08-22 20:33:00,73.0,69.0,30.05,ENE,61,0.0,6.0,87,0.00,,,1.06,,2013-08-23 01:33:00,
2013-08-22 20:52:00,72.0,67.0,30.06,ENE,69,0.0,3.0,84,0.00,,,1.06,,2013-08-23 01:52:00,
2013-08-22 21:11:00,71.0,65.0,30.08,ENE,69,0.0,3.0,82,0.00,,,1.06,,2013-08-23 02:11:00,
2013-08-22 21:22:00,70.0,63.0,30.08,ENE,69,0.0,3.0,78,0.00,,,1.06,,2013-08-23 02:22:00,
2013-08-22 21:52:00,69.0,60.0,30.09,ENE,69,3.0,3.0,72,0.00,,,1.06,,2013-08-23 02:52:00,
2013-08-22 22:12:00,69.0,58.0,30.10,ENE,69,0.0,0.0,68,0.00,,,1.06,,2013-08-23 03:12:00,
2013-08-22 22:23:00,69.0,58.0,30.10,ENE,69,0.0,0.0,68,0.00,,,1.06,,2013-08-23 03:23:00,
2013-08-22 22:34:00,69.0,58.0,30.10,ENE,69,0.0,0.0,68,0.00,,,1.06,,2013-08-23 03:34:00,
2013-08-22 23:24:00,66.0,56.0,30.10,ENE,69,0.0,1.0,70,0.00,,,1.06,,2013-08-23 04:24:00,
2013-08-22 23:43:00,66.0,56.0,30.10,ENE,69,0.0,0.0,70,0.00,,,1.06,,2013-08-23 04:43:00,
2013-08-22 23:54:00,66.0,56.0,30.10,ENE,69,0.0,0.0,70,0.00,,,1.06,,2013-08-23 04:54:00,